Time;durP1;ratioP1;P1;durP2;ratioP2;P2;SDS_P1;SDS_P2;PMS_P1;PMS_P2;Temp;Humidity;BMP_temperature;BMP_pressure;BME280_temperature;BME280_humidity;BME280_pressure;Samples;Min_cycle;Max_cycle;Signal;HPM_P1;HPM_P2
2022/08/30 00:02:03;;;;;;;2.53;0.55;;;;;;;;;;4974960;28;20493;-68
2022/08/30 00:04:30;;;;;;;2.42;0.60;;;;;;;;;;4956523;28;20043;-69
2022/08/30 00:06:57;;;;;;;2.17;0.80;;;;;;;;;;4955422;28;20043;-69
2022/08/30 00:09:23;;;;;;;2.63;0.65;;;;;;;;;;4962274;28;20109;-70
2022/08/30 00:11:50;;;;;;;3.83;1.40;;;;;;;;;;4960851;28;20121;-69
2022/08/30 00:14:19;;;;;;;5.10;2.70;;;;;;;;;;4961990;28;20051;-70
2022/08/30 00:16:45;;;;;;;4.60;1.95;;;;;;;;;;4963866;28;20055;-68
2022/08/30 00:19:12;;;;;;;2.63;0.80;;;;;;;;;;4954618;28;20162;-68
2022/08/30 00:21:39;;;;;;;2.72;0.82;;;;;;;;;;4956047;28;20047;-69
2022/08/30 00:24:06;;;;;;;3.28;0.95;;;;;;;;;;4955989;28;20046;-69
2022/08/30 00:26:32;;;;;;;3.25;0.90;;;;;;;;;;4955888;28;20074;-68
2022/08/30 00:28:59;;;;;;;2.70;0.80;;;;;;;;;;4970821;28;20062;-69
2022/08/30 00:31:25;;;;;;;3.35;1.10;;;;;;;;;;4954694;28;20389;-68
2022/08/30 00:33:52;;;;;;;4.18;0.70;;;;;;;;;;4959056;28;20049;-70
2022/08/30 00:36:20;;;;;;;2.75;0.60;;;;;;;;;;4962619;28;20039;-70
2022/08/30 00:38:46;;;;;;;2.53;0.68;;;;;;;;;;4959026;28;20046;-70
2022/08/30 00:41:13;;;;;;;3.00;0.90;;;;;;;;;;4964269;28;20845;-70
2022/08/30 00:43:39;;;;;;;1.38;0.55;;;;;;;;;;4959675;28;20048;-70
2022/08/30 00:46:07;;;;;;;1.70;0.50;;;;;;;;;;4957494;28;20453;-69
2022/08/30 00:48:35;;;;;;;1.85;0.60;;;;;;;;;;4957653;28;20043;-71
2022/08/30 00:51:04;;;;;;;4.85;0.70;;;;;;;;;;4956966;28;20484;-70
2022/08/30 00:53:35;;;;;;;3.05;0.60;;;;;;;;;;4964002;28;20122;-70
2022/08/30 00:56:02;;;;;;;2.58;0.70;;;;;;;;;;4956019;28;20047;-70
2022/08/30 00:58:31;;;;;;;2.95;0.70;;;;;;;;;;4954769;28;20414;-70
2022/08/30 01:00:59;;;;;;;3.10;0.60;;;;;;;;;;4968447;28;20035;-70
2022/08/30 01:03:26;;;;;;;3.30;0.70;;;;;;;;;;4974528;28;21695;-70
2022/08/30 01:05:53;;;;;;;2.60;0.60;;;;;;;;;;4987203;28;20054;-70
2022/08/30 01:08:23;;;;;;;1.88;0.50;;;;;;;;;;4956441;28;20465;-70
2022/08/30 01:10:51;;;;;;;2.92;0.80;;;;;;;;;;4963512;28;20039;-69
2022/08/30 01:13:20;;;;;;;2.25;0.55;;;;;;;;;;4965158;28;20042;-69
2022/08/30 01:15:47;;;;;;;5.13;0.80;;;;;;;;;;4956032;28;20590;-69
2022/08/30 01:18:16;;;;;;;2.28;0.60;;;;;;;;;;4972213;28;21271;-70
2022/08/30 01:20:53;;;;;;;2.35;0.60;;;;;;;;;;4965214;28;20153;-70
2022/08/30 01:23:21;;;;;;;1.45;0.63;;;;;;;;;;4958073;28;20046;-71
2022/08/30 01:25:49;;;;;;;2.40;0.70;;;;;;;;;;4962250;28;20034;-70
2022/08/30 01:28:19;;;;;;;2.42;0.55;;;;;;;;;;4956112;28;20551;-70
2022/08/30 01:30:47;;;;;;;2.08;0.70;;;;;;;;;;4961572;28;21464;-70
2022/08/30 01:33:14;;;;;;;3.30;0.60;;;;;;;;;;4963180;28;20050;-71
2022/08/30 01:35:55;;;;;;;3.00;0.90;;;;;;;;;;4964607;28;20097;-71
2022/08/30 01:38:23;;;;;;;1.88;0.55;;;;;;;;;;4973297;28;20115;-71
2022/08/30 01:40:50;;;;;;;2.50;0.80;;;;;;;;;;4984002;28;20076;-71
2022/08/30 01:43:18;;;;;;;1.95;0.50;;;;;;;;;;4980653;28;20046;-70
2022/08/30 01:45:45;;;;;;;2.65;0.80;;;;;;;;;;4974044;28;20417;-70
2022/08/30 01:48:12;;;;;;;2.95;0.75;;;;;;;;;;4973530;28;20047;-71
2022/08/30 01:50:39;;;;;;;3.17;0.70;;;;;;;;;;4974473;28;20034;-71
2022/08/30 01:53:05;;;;;;;1.90;0.60;;;;;;;;;;4974295;28;20108;-71
2022/08/30 01:55:32;;;;;;;5.05;0.70;;;;;;;;;;4972114;28;20537;-70
2022/08/30 01:57:59;;;;;;;1.70;0.60;;;;;;;;;;4973030;28;20597;-70
2022/08/30 02:00:26;;;;;;;2.03;0.60;;;;;;;;;;4984780;28;20511;-71
2022/08/30 02:02:53;;;;;;;2.80;0.60;;;;;;;;;;4954683;28;20043;-70
2022/08/30 02:05:20;;;;;;;1.75;0.60;;;;;;;;;;4963261;28;20401;-69
2022/08/30 02:07:46;;;;;;;3.80;0.80;;;;;;;;;;4954063;28;20054;-68
2022/08/30 02:10:13;;;;;;;2.85;0.75;;;;;;;;;;4961166;28;20073;-68
2022/08/30 02:12:40;;;;;;;2.45;0.80;;;;;;;;;;4970995;28;20042;-69
2022/08/30 02:15:08;;;;;;;1.92;0.68;;;;;;;;;;4970709;28;20027;-70
2022/08/30 02:17:35;;;;;;;2.35;0.73;;;;;;;;;;4954956;28;20142;-69
2022/08/30 02:20:02;;;;;;;2.47;0.80;;;;;;;;;;4967352;28;20110;-70
2022/08/30 02:22:29;;;;;;;2.55;0.88;;;;;;;;;;4968416;28;20047;-71
2022/08/30 02:24:55;;;;;;;2.38;0.60;;;;;;;;;;4959453;28;20065;-71
2022/08/30 02:27:22;;;;;;;1.77;0.60;;;;;;;;;;4958671;28;20042;-70
2022/08/30 02:29:49;;;;;;;2.70;0.80;;;;;;;;;;4979277;28;20113;-70
2022/08/30 02:32:15;;;;;;;1.83;0.63;;;;;;;;;;4973065;28;20484;-70
2022/08/30 02:34:43;;;;;;;1.85;0.70;;;;;;;;;;4970467;28;20481;-70
2022/08/30 02:37:10;;;;;;;2.72;0.77;;;;;;;;;;4956159;28;20371;-69
2022/08/30 02:39:36;;;;;;;4.82;0.90;;;;;;;;;;4952704;28;20097;-69
2022/08/30 02:42:03;;;;;;;2.22;0.70;;;;;;;;;;4967764;28;20417;-69
2022/08/30 02:44:29;;;;;;;3.78;0.75;;;;;;;;;;4964671;28;20039;-69
2022/08/30 02:46:56;;;;;;;2.17;0.73;;;;;;;;;;4963066;28;20092;-69
2022/08/30 02:49:23;;;;;;;3.17;0.80;;;;;;;;;;4974577;28;20046;-70
2022/08/30 02:51:49;;;;;;;2.58;0.80;;;;;;;;;;4963237;28;20062;-70
2022/08/30 02:54:18;;;;;;;2.78;0.85;;;;;;;;;;4963020;28;20055;-71
2022/08/30 02:56:46;;;;;;;4.05;0.77;;;;;;;;;;4957212;28;20054;-70
2022/08/30 02:59:13;;;;;;;2.40;0.80;;;;;;;;;;4973690;28;20153;-66
2022/08/30 03:01:40;;;;;;;2.40;0.80;;;;;;;;;;4954987;28;20189;-70
2022/08/30 03:04:08;;;;;;;2.78;0.80;;;;;;;;;;4955037;28;20043;-69
2022/08/30 03:06:34;;;;;;;3.00;0.70;;;;;;;;;;4984571;28;20054;-69
2022/08/30 03:09:06;;;;;;;4.35;0.88;;;;;;;;;;4955852;28;20050;-70
2022/08/30 03:11:33;;;;;;;2.58;0.70;;;;;;;;;;4963162;28;20043;-68
2022/08/30 03:14:00;;;;;;;2.35;0.90;;;;;;;;;;4955872;28;20070;-67
2022/08/30 03:16:26;;;;;;;2.40;0.77;;;;;;;;;;4966182;28;20038;-68
2022/08/30 03:18:58;;;;;;;2.47;0.93;;;;;;;;;;4965729;28;20082;-67
2022/08/30 03:21:24;;;;;;;2.58;0.80;;;;;;;;;;4969802;28;20050;-67
2022/08/30 03:23:51;;;;;;;3.92;0.80;;;;;;;;;;4959278;28;20054;-67
2022/08/30 03:26:17;;;;;;;5.68;0.93;;;;;;;;;;4961439;28;20061;-67
2022/08/30 03:28:44;;;;;;;3.20;0.90;;;;;;;;;;4959525;28;20106;-67
2022/08/30 03:31:11;;;;;;;3.60;0.80;;;;;;;;;;4957044;28;20047;-67
2022/08/30 03:33:39;;;;;;;2.20;0.70;;;;;;;;;;4957319;28;20046;-67
2022/08/30 03:36:07;;;;;;;2.35;0.90;;;;;;;;;;4972136;28;20039;-68
2022/08/30 03:38:33;;;;;;;2.83;0.90;;;;;;;;;;4958548;28;20168;-67
2022/08/30 03:41:00;;;;;;;4.10;0.90;;;;;;;;;;4957331;28;20030;-67
2022/08/30 03:43:27;;;;;;;2.50;0.80;;;;;;;;;;4957183;28;20083;-67
2022/08/30 03:45:53;;;;;;;3.35;1.00;;;;;;;;;;4963248;28;20136;-67
2022/08/30 03:48:20;;;;;;;7.07;0.90;;;;;;;;;;4957203;28;20743;-68
2022/08/30 03:50:47;;;;;;;2.80;0.80;;;;;;;;;;4990698;28;20049;-67
2022/08/30 03:53:13;;;;;;;2.83;0.80;;;;;;;;;;4976304;28;20042;-67
2022/08/30 03:55:40;;;;;;;2.83;0.90;;;;;;;;;;4960000;28;20051;-68
2022/08/30 03:58:06;;;;;;;3.60;1.05;;;;;;;;;;4991527;28;20050;-68
2022/08/30 04:00:33;;;;;;;4.55;1.13;;;;;;;;;;4958773;28;20067;-68
2022/08/30 04:02:59;;;;;;;6.03;1.20;;;;;;;;;;4957180;28;20039;-68
2022/08/30 04:05:26;;;;;;;3.05;1.00;;;;;;;;;;4966345;28;20459;-68
2022/08/30 04:07:53;;;;;;;3.03;0.95;;;;;;;;;;4957524;28;20066;-68
2022/08/30 04:10:20;;;;;;;3.95;1.10;;;;;;;;;;4964949;28;20047;-67
2022/08/30 04:12:47;;;;;;;4.97;1.20;;;;;;;;;;4959390;28;20654;-67
2022/08/30 04:15:14;;;;;;;3.95;0.90;;;;;;;;;;4968886;28;20154;-68
2022/08/30 04:17:41;;;;;;;2.88;0.98;;;;;;;;;;4960063;28;20762;-67
2022/08/30 04:20:08;;;;;;;2.85;1.08;;;;;;;;;;4982321;28;20039;-67
2022/08/30 04:22:35;;;;;;;2.80;0.82;;;;;;;;;;4963556;28;20053;-68
2022/08/30 04:25:02;;;;;;;5.63;0.90;;;;;;;;;;4990495;28;20039;-68
2022/08/30 04:27:29;;;;;;;2.60;0.95;;;;;;;;;;4958953;28;20046;-68
2022/08/30 04:29:56;;;;;;;3.22;0.90;;;;;;;;;;4958947;28;20035;-68
2022/08/30 04:32:22;;;;;;;7.45;1.08;;;;;;;;;;4959560;28;20078;-67
2022/08/30 04:34:49;;;;;;;2.75;0.88;;;;;;;;;;4962988;28;20042;-67
2022/08/30 04:37:15;;;;;;;3.05;1.02;;;;;;;;;;4965636;28;20046;-67
2022/08/30 04:39:42;;;;;;;5.22;1.23;;;;;;;;;;4960077;28;20082;-68
2022/08/30 04:42:10;;;;;;;3.25;1.20;;;;;;;;;;4959096;28;20144;-68
2022/08/30 04:44:36;;;;;;;3.75;1.00;;;;;;;;;;4955256;28;20105;-68
2022/08/30 04:47:07;;;;;;;3.00;0.93;;;;;;;;;;4958201;28;20112;-69
2022/08/30 04:49:33;;;;;;;3.78;1.08;;;;;;;;;;4979615;28;20042;-69
2022/08/30 04:52:07;;;;;;;3.03;1.08;;;;;;;;;;4955618;28;20035;-69
2022/08/30 04:58:11;;;;;;;4.03;1.00;;;;;;;;;;4968636;28;20050;-70
2022/08/30 05:00:40;;;;;;;2.83;0.90;;;;;;;;;;4984108;28;20037;-67
2022/08/30 05:03:07;;;;;;;4.00;1.10;;;;;;;;;;4950531;28;20074;-66
2022/08/30 05:05:40;;;;;;;2.42;0.82;;;;;;;;;;4954119;28;20043;-67
2022/08/30 05:08:10;;;;;;;5.90;1.10;;;;;;;;;;4955677;28;20732;-67
2022/08/30 05:10:38;;;;;;;2.60;0.80;;;;;;;;;;4955666;28;20074;-68
2022/08/30 05:13:05;;;;;;;4.68;1.05;;;;;;;;;;4956087;28;20043;-68
2022/08/30 05:15:32;;;;;;;3.20;0.90;;;;;;;;;;4957225;28;20054;-68
2022/08/30 05:17:59;;;;;;;3.83;1.13;;;;;;;;;;4955726;28;20058;-68
2022/08/30 05:20:25;;;;;;;3.47;1.25;;;;;;;;;;4954932;28;20106;-68
2022/08/30 05:22:52;;;;;;;4.15;1.20;;;;;;;;;;4956579;28;20034;-67
2022/08/30 05:25:20;;;;;;;3.53;1.15;;;;;;;;;;4970960;28;20074;-66
2022/08/30 05:27:47;;;;;;;3.80;1.10;;;;;;;;;;4956589;28;20044;-67
2022/08/30 05:30:14;;;;;;;2.90;1.00;;;;;;;;;;4957991;28;20053;-68
2022/08/30 05:32:41;;;;;;;3.22;1.10;;;;;;;;;;4956850;28;20118;-67
2022/08/30 05:35:08;;;;;;;3.03;0.90;;;;;;;;;;4955282;28;20039;-67
2022/08/30 05:37:35;;;;;;;3.33;0.90;;;;;;;;;;4954398;28;20513;-67
2022/08/30 05:40:02;;;;;;;3.30;0.82;;;;;;;;;;4955290;28;20150;-67
2022/08/30 05:42:28;;;;;;;4.53;0.82;;;;;;;;;;4954948;28;20043;-67
2022/08/30 05:44:55;;;;;;;3.20;1.08;;;;;;;;;;4954464;28;20039;-68
2022/08/30 05:47:22;;;;;;;3.38;1.05;;;;;;;;;;4954062;28;20063;-68
2022/08/30 05:49:48;;;;;;;3.63;1.05;;;;;;;;;;4953765;28;20638;-68
2022/08/30 05:52:17;;;;;;;2.90;0.90;;;;;;;;;;4954010;28;20047;-68
2022/08/30 05:54:51;;;;;;;3.67;1.13;;;;;;;;;;4952619;28;20039;-68
2022/08/30 05:57:18;;;;;;;3.03;0.90;;;;;;;;;;4958370;28;20059;-68
2022/08/30 05:59:45;;;;;;;3.25;1.00;;;;;;;;;;4967172;28;20054;-68
2022/08/30 06:02:11;;;;;;;3.10;1.00;;;;;;;;;;4966162;28;20388;-68
2022/08/30 06:04:38;;;;;;;4.63;1.30;;;;;;;;;;4981468;28;20049;-68
2022/08/30 06:07:05;;;;;;;3.72;1.17;;;;;;;;;;4960932;28;20061;-69
2022/08/30 06:09:32;;;;;;;2.65;0.88;;;;;;;;;;4956566;28;20461;-68
2022/08/30 06:11:58;;;;;;;3.00;1.10;;;;;;;;;;4959102;28;20133;-67
2022/08/30 06:14:25;;;;;;;3.88;1.40;;;;;;;;;;4988362;28;20039;-67
2022/08/30 06:16:52;;;;;;;2.80;1.00;;;;;;;;;;4958245;28;20118;-67
2022/08/30 06:19:19;;;;;;;3.80;1.20;;;;;;;;;;4965910;28;20082;-67
2022/08/30 06:21:49;;;;;;;5.32;1.40;;;;;;;;;;4955268;28;20051;-66
2022/08/30 06:24:16;;;;;;;3.88;1.25;;;;;;;;;;4959512;28;20496;-67
2022/08/30 06:26:44;;;;;;;3.58;1.27;;;;;;;;;;4959464;28;20492;-66
2022/08/30 06:29:13;;;;;;;5.68;1.40;;;;;;;;;;4969850;28;20093;-67
2022/08/30 06:31:39;;;;;;;2.95;1.13;;;;;;;;;;4955367;28;20145;-67
2022/08/30 06:34:06;;;;;;;4.78;1.40;;;;;;;;;;4957263;28;20066;-66
2022/08/30 06:36:33;;;;;;;6.68;1.60;;;;;;;;;;4963486;28;20127;-66
2022/08/30 06:38:59;;;;;;;3.97;1.30;;;;;;;;;;4955250;28;20070;-67
2022/08/30 06:41:28;;;;;;;5.43;1.38;;;;;;;;;;4955658;28;20037;-66
2022/08/30 06:43:55;;;;;;;3.20;1.10;;;;;;;;;;4953585;28;20046;-67
2022/08/30 06:46:23;;;;;;;3.88;1.10;;;;;;;;;;4952611;28;20074;-67
2022/08/30 06:48:50;;;;;;;4.25;1.40;;;;;;;;;;4955262;28;20110;-67
2022/08/30 06:51:20;;;;;;;4.95;1.20;;;;;;;;;;4956124;28;20443;-67
2022/08/30 06:53:47;;;;;;;5.85;1.25;;;;;;;;;;4997834;28;20097;-67
2022/08/30 06:56:14;;;;;;;3.25;1.10;;;;;;;;;;4960840;28;20078;-69
2022/08/30 06:58:41;;;;;;;4.82;1.45;;;;;;;;;;4951163;28;20508;-68
2022/08/30 07:01:11;;;;;;;3.63;1.27;;;;;;;;;;4960113;28;20737;-67
2022/08/30 07:03:38;;;;;;;3.35;1.40;;;;;;;;;;4959969;28;20039;-68
2022/08/30 07:06:05;;;;;;;3.40;1.27;;;;;;;;;;4954478;28;20046;-67
2022/08/30 07:08:31;;;;;;;5.15;1.27;;;;;;;;;;4951833;28;20047;-67
2022/08/30 07:10:58;;;;;;;4.63;1.33;;;;;;;;;;4967102;28;20289;-68
2022/08/30 07:13:26;;;;;;;5.53;1.30;;;;;;;;;;4950526;28;20039;-68
2022/08/30 07:15:53;;;;;;;4.93;1.30;;;;;;;;;;4952162;28;20059;-67
2022/08/30 07:21:07;;;;;;;3.92;1.50;;;;;;;;;;4971640;28;20053;-67
2022/08/30 07:23:34;;;;;;;5.18;1.45;;;;;;;;;;4969322;28;20065;-67
2022/08/30 07:26:03;;;;;;;3.65;1.48;;;;;;;;;;4957088;28;20524;-67
2022/08/30 07:28:30;;;;;;;3.45;1.40;;;;;;;;;;4960400;28;20050;-69
2022/08/30 07:30:56;;;;;;;4.22;1.75;;;;;;;;;;4952502;28;20046;-67
2022/08/30 07:33:23;;;;;;;4.72;1.50;;;;;;;;;;4951012;28;20050;-67
2022/08/30 07:35:49;;;;;;;4.05;1.67;;;;;;;;;;4951723;28;21256;-67
2022/08/30 07:38:17;;;;;;;4.63;1.50;;;;;;;;;;4952691;28;20055;-67
2022/08/30 07:40:43;;;;;;;5.63;1.60;;;;;;;;;;4950854;28;20043;-66
2022/08/30 07:43:10;;;;;;;3.53;1.50;;;;;;;;;;4951771;28;20050;-67
2022/08/30 07:45:37;;;;;;;3.30;1.27;;;;;;;;;;4951159;28;20039;-68
2022/08/30 07:48:04;;;;;;;5.28;1.73;;;;;;;;;;4959587;28;20053;-67
2022/08/30 07:50:31;;;;;;;4.10;1.50;;;;;;;;;;4951919;28;20107;-67
2022/08/30 07:52:57;;;;;;;4.00;1.58;;;;;;;;;;4953882;28;20513;-67
2022/08/30 07:55:24;;;;;;;3.67;1.65;;;;;;;;;;4959807;28;20104;-67
2022/08/30 07:57:51;;;;;;;7.03;1.73;;;;;;;;;;4955853;28;20050;-67
2022/08/30 08:00:17;;;;;;;4.78;1.40;;;;;;;;;;4956929;28;20085;-66
2022/08/30 08:02:44;;;;;;;4.18;1.50;;;;;;;;;;4961547;28;20039;-66
2022/08/30 08:05:13;;;;;;;4.72;1.55;;;;;;;;;;4955590;28;20659;-66
2022/08/30 08:07:42;;;;;;;5.47;1.55;;;;;;;;;;4971526;28;20121;-66
2022/08/30 08:10:09;;;;;;;7.68;1.58;;;;;;;;;;4967315;28;20043;-67
2022/08/30 08:12:36;;;;;;;4.25;1.58;;;;;;;;;;4954766;28;20134;-67
2022/08/30 08:15:03;;;;;;;6.05;1.50;;;;;;;;;;4956509;28;21048;-67
2022/08/30 08:17:30;;;;;;;4.78;1.67;;;;;;;;;;4963033;28;20165;-67
2022/08/30 08:19:56;;;;;;;10.38;2.67;;;;;;;;;;4955759;28;20043;-66
2022/08/30 08:22:23;;;;;;;4.63;1.92;;;;;;;;;;4955696;28;20043;-67
2022/08/30 08:24:50;;;;;;;3.72;1.60;;;;;;;;;;4955737;28;20050;-67
2022/08/30 08:27:16;;;;;;;3.83;1.50;;;;;;;;;;4956473;28;20177;-67
2022/08/30 08:29:43;;;;;;;6.05;1.40;;;;;;;;;;4954219;28;20506;-67
2022/08/30 08:32:09;;;;;;;5.55;1.50;;;;;;;;;;4968446;28;20074;-67
2022/08/30 08:34:36;;;;;;;3.63;1.50;;;;;;;;;;4987075;28;20041;-67
2022/08/30 08:37:03;;;;;;;3.67;1.40;;;;;;;;;;4954351;28;20085;-67
2022/08/30 08:39:29;;;;;;;5.30;1.55;;;;;;;;;;4953962;28;20038;-67
2022/08/30 08:42:02;;;;;;;3.47;1.50;;;;;;;;;;4955446;28;20035;-67
2022/08/30 08:44:29;;;;;;;;;;;;;;;;;;4963030;28;20039;-67
2022/08/30 08:47:00;;;;;;;4.47;1.38;;;;;;;;;;4953826;28;20384;-67
2022/08/30 08:49:26;;;;;;;4.38;1.92;;;;;;;;;;4953536;28;20138;-68
2022/08/30 08:54:59;;;;;;;6.72;1.90;;;;;;;;;;4953893;28;20053;-67
2022/08/30 08:57:28;;;;;;;9.68;1.80;;;;;;;;;;4954346;28;21882;-67
2022/08/30 08:59:54;;;;;;;4.25;1.60;;;;;;;;;;4954614;28;20034;-67
2022/08/30 09:02:26;;;;;;;6.43;1.58;;;;;;;;;;4954525;28;20117;-67
2022/08/30 09:04:57;;;;;;;3.58;1.33;;;;;;;;;;4950077;28;20043;-67
2022/08/30 09:07:29;;;;;;;4.80;1.70;;;;;;;;;;4954937;28;20447;-67
2022/08/30 09:09:59;;;;;;;6.32;1.80;;;;;;;;;;4954308;28;20055;-67
2022/08/30 09:12:26;;;;;;;4.22;1.80;;;;;;;;;;4954316;28;20109;-67
2022/08/30 09:14:54;;;;;;;9.43;1.73;;;;;;;;;;4959946;28;20034;-67
2022/08/30 09:17:21;;;;;;;3.83;1.50;;;;;;;;;;4958386;28;20626;-68
2022/08/30 09:19:54;;;;;;;4.75;1.33;;;;;;;;;;4955098;28;20572;-69
2022/08/30 09:22:25;;;;;;;3.65;1.40;;;;;;;;;;4961993;28;20639;-68
2022/08/30 09:24:59;;;;;;;5.63;1.48;;;;;;;;;;4955964;28;20055;-68
2022/08/30 09:27:29;;;;;;;3.33;1.30;;;;;;;;;;4953756;28;20039;-68
2022/08/30 09:30:04;;;;;;;5.35;1.70;;;;;;;;;;4955130;28;20042;-68
2022/08/30 09:32:41;;;;;;;4.03;1.45;;;;;;;;;;4971305;28;20042;-68
2022/08/30 09:35:12;;;;;;;7.35;1.80;;;;;;;;;;4969214;28;20043;-68
2022/08/30 09:37:39;;;;;;;6.70;1.73;;;;;;;;;;4957193;28;20046;-66
2022/08/30 09:40:11;;;;;;;7.30;1.75;;;;;;;;;;4967615;28;20412;-66
2022/08/30 09:42:38;;;;;;;6.25;1.70;;;;;;;;;;4963913;28;20050;-68
2022/08/30 09:45:11;;;;;;;3.58;1.60;;;;;;;;;;4968290;28;20031;-67
2022/08/30 09:47:39;;;;;;;4.28;1.65;;;;;;;;;;4962492;28;20137;-67
2022/08/30 09:50:11;;;;;;;6.72;1.50;;;;;;;;;;4954611;28;20449;-67
2022/08/30 09:52:37;;;;;;;7.57;1.60;;;;;;;;;;4962772;28;20210;-68
2022/08/30 09:55:09;;;;;;;8.40;1.95;;;;;;;;;;4960267;28;20985;-68
2022/08/30 09:57:39;;;;;;;7.57;2.20;;;;;;;;;;4953615;28;20105;-68
2022/08/30 10:00:20;;;;;;;4.03;1.63;;;;;;;;;;4954542;28;20785;-68
2022/08/30 10:02:53;;;;;;;8.50;1.77;;;;;;;;;;4964396;28;20433;-67
2022/08/30 10:05:25;;;;;;;5.22;1.90;;;;;;;;;;4974115;28;20586;-66
2022/08/30 10:07:58;;;;;;;4.63;1.80;;;;;;;;;;4961075;28;20043;-67
2022/08/30 10:10:30;;;;;;;6.70;1.80;;;;;;;;;;4952718;28;20046;-66
2022/08/30 10:13:27;;;;;;;7.68;1.65;;;;;;;;;;4960516;28;20039;-67
2022/08/30 10:15:54;;;;;;;7.80;1.65;;;;;;;;;;4976676;28;20039;-66
2022/08/30 10:18:26;;;;;;;5.25;1.92;;;;;;;;;;4959402;28;20058;-66
2022/08/30 10:21:11;;;;;;;6.68;1.90;;;;;;;;;;4951971;28;20047;-67
2022/08/30 10:23:43;;;;;;;4.30;1.48;;;;;;;;;;4952675;28;20035;-67
2022/08/30 10:26:26;;;;;;;5.13;1.77;;;;;;;;;;4955254;28;21369;-67
2022/08/30 10:28:59;;;;;;;4.85;1.67;;;;;;;;;;4962360;28;20058;-67
2022/08/30 10:31:28;;;;;;;3.67;1.40;;;;;;;;;;4959865;28;21795;-66
2022/08/30 10:34:01;;;;;;;3.78;1.67;;;;;;;;;;4973359;28;20284;-68
2022/08/30 10:36:33;;;;;;;5.72;2.03;;;;;;;;;;4972424;28;20035;-67
2022/08/30 10:39:01;;;;;;;4.00;1.83;;;;;;;;;;4960464;28;20055;-67
2022/08/30 10:41:32;;;;;;;4.78;2.03;;;;;;;;;;4961710;28;20089;-68
2022/08/30 10:44:05;;;;;;;4.07;1.75;;;;;;;;;;4953959;28;20051;-68
2022/08/30 10:46:47;;;;;;;4.15;1.80;;;;;;;;;;4953375;28;20069;-66
2022/08/30 10:49:18;;;;;;;5.97;1.80;;;;;;;;;;4953475;28;21833;-68
2022/08/30 10:51:51;;;;;;;5.85;1.60;;;;;;;;;;4965467;28;20039;-68
2022/08/30 10:54:17;;;;;;;;;;;;;;;;;;4964705;28;20043;-68
2022/08/30 10:56:45;;;;;;;13.40;2.10;;;;;;;;;;4952472;28;20942;-68
2022/08/30 10:59:12;;;;;;;3.92;1.48;;;;;;;;;;4958321;28;20066;-68
2022/08/30 11:01:52;;;;;;;4.07;1.85;;;;;;;;;;4968657;28;20042;-68
2022/08/30 11:04:57;;;;;;;5.00;1.83;;;;;;;;;;4955071;28;20116;-68
2022/08/30 11:07:48;;;;;;;3.53;1.60;;;;;;;;;;4948387;28;20583;-68
2022/08/30 11:10:42;;;;;;;7.55;1.50;;;;;;;;;;4953461;28;20830;-68
2022/08/30 11:13:08;;;;;;;;;;;;;;;;;;4977442;28;20492;-67
2022/08/30 11:15:36;;;;;;;4.25;1.90;;;;;;;;;;4974438;28;19922;-67
2022/08/30 11:18:06;;;;;;;5.30;1.67;;;;;;;;;;4974881;28;20039;-67
2022/08/30 11:20:38;;;;;;;5.03;1.90;;;;;;;;;;4972689;28;20133;-68
2022/08/30 11:23:13;;;;;;;4.43;1.70;;;;;;;;;;4972459;28;20043;-67
2022/08/30 11:25:55;;;;;;;4.03;1.88;;;;;;;;;;4985719;28;20069;-67
2022/08/30 11:28:51;;;;;;;5.50;1.80;;;;;;;;;;4971086;28;20042;-68
2022/08/30 11:31:20;;;;;;;3.75;1.48;;;;;;;;;;4978995;28;20042;-68
2022/08/30 11:33:48;;;;;;;5.30;1.75;;;;;;;;;;4971280;28;20887;-68
2022/08/30 11:36:37;;;;;;;5.45;1.90;;;;;;;;;;4973010;28;20035;-67
2022/08/30 11:39:07;;;;;;;4.40;1.60;;;;;;;;;;4975694;28;20047;-67
2022/08/30 11:41:35;;;;;;;7.00;1.90;;;;;;;;;;4972835;28;20480;-68
2022/08/30 11:44:13;;;;;;;4.35;1.90;;;;;;;;;;4971612;28;20031;-68
2022/08/30 11:46:41;;;;;;;5.00;1.80;;;;;;;;;;4954497;28;20138;-66
2022/08/30 11:49:13;;;;;;;4.45;1.67;;;;;;;;;;4959165;28;20085;-66
2022/08/30 11:51:43;;;;;;;6.60;1.70;;;;;;;;;;4962693;28;20057;-66
2022/08/30 11:54:10;;;;;;;4.50;1.58;;;;;;;;;;4970998;28;20054;-68
2022/08/30 11:56:36;;;;;;;4.57;1.70;;;;;;;;;;4954192;28;20050;-67
2022/08/30 11:59:25;;;;;;;4.43;1.65;;;;;;;;;;4958296;28;20061;-68
2022/08/30 12:01:52;;;;;;;4.22;1.70;;;;;;;;;;4963882;28;21066;-68
2022/08/30 12:04:19;;;;;;;3.85;1.80;;;;;;;;;;4983572;28;20043;-68
2022/08/30 12:07:06;;;;;;;5.18;1.63;;;;;;;;;;5003718;28;20140;-67
2022/08/30 12:09:36;;;;;;;3.78;1.70;;;;;;;;;;4975023;28;20468;-67
2022/08/30 12:12:11;;;;;;;3.58;1.65;;;;;;;;;;4975465;28;20044;-68
2022/08/30 12:14:40;;;;;;;5.20;2.42;;;;;;;;;;4955627;28;20161;-68
2022/08/30 12:19:58;;;;;;;4.97;1.80;;;;;;;;;;4969676;28;20097;-66
2022/08/30 12:22:29;;;;;;;4.40;1.80;;;;;;;;;;4955922;28;20039;-67
2022/08/30 12:24:56;;;;;;;3.67;1.63;;;;;;;;;;4974932;28;20042;-67
2022/08/30 12:27:27;;;;;;;8.93;1.90;;;;;;;;;;4957960;28;20043;-67
2022/08/30 12:29:56;;;;;;;5.35;2.13;;;;;;;;;;4955349;28;20421;-67
2022/08/30 12:32:23;;;;;;;4.40;1.88;;;;;;;;;;4955239;28;20552;-66
2022/08/30 12:34:51;;;;;;;6.82;1.80;;;;;;;;;;4954807;28;20039;-67
2022/08/30 12:37:26;;;;;;;7.15;2.33;;;;;;;;;;4954180;28;20054;-67
2022/08/30 12:40:01;;;;;;;6.05;1.73;;;;;;;;;;4975431;28;20042;-67
2022/08/30 12:42:29;;;;;;;5.47;1.90;;;;;;;;;;4976434;28;20043;-67
2022/08/30 12:44:58;;;;;;;5.28;1.65;;;;;;;;;;4976254;28;20035;-67
2022/08/30 12:47:28;;;;;;;6.13;1.90;;;;;;;;;;4974672;28;20048;-66
2022/08/30 12:49:56;;;;;;;3.90;1.88;;;;;;;;;;4975971;28;20053;-66
2022/08/30 12:52:22;;;;;;;5.22;1.83;;;;;;;;;;4973249;28;20042;-66
2022/08/30 12:54:51;;;;;;;4.68;1.92;;;;;;;;;;4962806;28;20043;-67
2022/08/30 12:57:36;;;;;;;8.25;2.20;;;;;;;;;;4952211;28;20089;-68
2022/08/30 13:00:04;;;;;;;4.10;1.90;;;;;;;;;;4960779;28;20043;-64
2022/08/30 13:02:44;;;;;;;5.30;2.00;;;;;;;;;;4963692;28;20126;-65
2022/08/30 13:05:30;;;;;;;5.50;2.35;;;;;;;;;;4956671;28;20125;-68
2022/08/30 13:08:15;;;;;;;4.45;1.95;;;;;;;;;;4956111;28;20039;-67
2022/08/30 13:10:49;;;;;;;7.43;2.20;;;;;;;;;;4971663;28;20032;-67
2022/08/30 13:13:45;;;;;;;11.93;2.63;;;;;;;;;;4962669;28;20117;-67
2022/08/30 13:16:34;;;;;;;4.38;1.92;;;;;;;;;;4955225;28;20061;-67
2022/08/30 13:19:22;;;;;;;6.80;2.35;;;;;;;;;;4964903;28;20046;-67
2022/08/30 13:21:53;;;;;;;8.23;2.10;;;;;;;;;;4956373;28;20112;-67
2022/08/30 13:24:20;;;;;;;6.70;2.10;;;;;;;;;;4972934;28;20070;-67
2022/08/30 13:26:46;;;;;;;4.90;1.77;;;;;;;;;;4960097;28;20508;-67
2022/08/30 13:29:31;;;;;;;7.28;1.92;;;;;;;;;;4970531;28;20090;-66
2022/08/30 13:31:58;;;;;;;5.47;2.00;;;;;;;;;;4959849;28;20038;-67
2022/08/30 13:34:24;;;;;;;4.80;1.83;;;;;;;;;;4953123;28;20130;-67
2022/08/30 13:36:56;;;;;;;5.20;1.80;;;;;;;;;;4953510;28;20070;-67
2022/08/30 13:39:22;;;;;;;5.28;2.08;;;;;;;;;;4984020;28;20389;-67
2022/08/30 13:41:50;;;;;;;6.00;1.95;;;;;;;;;;4963164;28;20468;-68
2022/08/30 13:44:17;;;;;;;4.60;1.70;;;;;;;;;;4962795;28;20041;-68
2022/08/30 13:46:52;;;;;;;5.93;1.80;;;;;;;;;;4960113;28;20035;-68
2022/08/30 13:49:26;;;;;;;5.95;2.08;;;;;;;;;;4968164;28;20647;-67
2022/08/30 13:51:53;;;;;;;4.85;1.80;;;;;;;;;;4962086;28;20524;-67
2022/08/30 13:54:21;;;;;;;8.05;1.73;;;;;;;;;;4954103;28;20109;-67
2022/08/30 13:56:52;;;;;;;7.13;2.22;;;;;;;;;;4959887;28;20086;-67
2022/08/30 13:59:18;;;;;;;6.28;2.00;;;;;;;;;;4953963;28;20035;-67
2022/08/30 14:01:45;;;;;;;4.82;1.70;;;;;;;;;;4960286;28;20559;-67
2022/08/30 14:04:12;;;;;;;6.05;2.03;;;;;;;;;;4961286;28;20054;-68
2022/08/30 14:06:38;;;;;;;4.85;1.80;;;;;;;;;;4965059;28;20520;-67
2022/08/30 14:09:06;;;;;;;4.10;1.98;;;;;;;;;;4959783;28;20039;-67
2022/08/30 14:11:33;;;;;;;5.40;2.20;;;;;;;;;;4956101;28;20420;-68
2022/08/30 14:14:00;;;;;;;5.32;1.95;;;;;;;;;;4958529;28;20636;-68
2022/08/30 14:16:27;;;;;;;4.93;1.80;;;;;;;;;;4955314;28;20932;-68
2022/08/30 14:18:54;;;;;;;7.80;2.25;;;;;;;;;;4954649;28;20057;-67
2022/08/30 14:21:20;;;;;;;5.45;1.63;;;;;;;;;;4954379;28;20048;-67
2022/08/30 14:23:47;;;;;;;5.47;1.83;;;;;;;;;;4953764;28;20042;-67
2022/08/30 14:26:16;;;;;;;4.20;1.58;;;;;;;;;;4968514;28;20124;-68
2022/08/30 14:28:43;;;;;;;5.35;1.90;;;;;;;;;;4953199;28;20055;-68
2022/08/30 14:31:10;;;;;;;5.65;2.10;;;;;;;;;;4959990;28;20042;-68
2022/08/30 14:33:37;;;;;;;5.70;1.90;;;;;;;;;;4984623;28;20529;-68
2022/08/30 14:36:04;;;;;;;3.72;1.42;;;;;;;;;;4955002;28;20121;-68
2022/08/30 14:38:31;;;;;;;6.88;1.65;;;;;;;;;;4954179;28;20086;-68
2022/08/30 14:40:58;;;;;;;6.20;1.95;;;;;;;;;;4962720;28;20046;-68
2022/08/30 14:43:24;;;;;;;5.45;1.80;;;;;;;;;;4962983;28;21782;-68
2022/08/30 14:45:51;;;;;;;6.97;1.92;;;;;;;;;;4954482;28;20038;-68
2022/08/30 14:48:18;;;;;;;12.52;1.85;;;;;;;;;;4953361;28;20043;-68
2022/08/30 14:50:44;;;;;;;8.55;2.05;;;;;;;;;;4953484;28;20106;-68
2022/08/30 14:53:11;;;;;;;8.05;2.10;;;;;;;;;;4985157;28;20125;-68
2022/08/30 14:55:37;;;;;;;6.72;1.85;;;;;;;;;;4952974;28;20059;-68
2022/08/30 14:58:05;;;;;;;4.40;1.50;;;;;;;;;;4952975;28;20050;-68
2022/08/30 15:00:32;;;;;;;5.15;1.58;;;;;;;;;;4952430;28;20050;-68
2022/08/30 15:02:58;;;;;;;7.45;1.70;;;;;;;;;;4952643;28;20126;-68
2022/08/30 15:05:25;;;;;;;5.13;1.65;;;;;;;;;;4965349;28;20071;-68
2022/08/30 15:07:52;;;;;;;5.10;1.45;;;;;;;;;;4968793;28;20047;-68